sensor_id;sensor_type;location;lat;lon;timestamp;P1;durP1;ratioP1;P2;durP2;ratioP2
75700;SDS011;64321;48.796;44.740;2023-01-29T00:01:16;11.40;;;3.40;;
75700;SDS011;64321;48.796;44.740;2023-01-29T00:06:19;6.65;;;2.47;;
75700;SDS011;64321;48.796;44.740;2023-01-29T00:11:21;6.20;;;2.60;;
75700;SDS011;64321;48.796;44.740;2023-01-29T00:16:24;8.15;;;2.78;;
75700;SDS011;64321;48.796;44.740;2023-01-29T00:21:27;12.98;;;2.85;;
75700;SDS011;64321;48.796;44.740;2023-01-29T00:26:31;6.68;;;2.30;;
75700;SDS011;64321;48.796;44.740;2023-01-29T00:31:34;13.30;;;5.50;;
75700;SDS011;64321;48.796;44.740;2023-01-29T00:36:36;23.20;;;7.43;;
75700;SDS011;64321;48.796;44.740;2023-01-29T00:41:38;19.33;;;7.38;;
75700;SDS011;64321;48.796;44.740;2023-01-29T00:46:59;14.02;;;5.90;;
75700;SDS011;64321;48.796;44.740;2023-01-29T00:52:01;7.95;;;2.90;;
75700;SDS011;64321;48.796;44.740;2023-01-29T00:57:23;8.20;;;2.90;;
75700;SDS011;64321;48.796;44.740;2023-01-29T01:02:27;8.25;;;3.20;;
75700;SDS011;64321;48.796;44.740;2023-01-29T01:07:48;7.75;;;2.70;;
75700;SDS011;64321;48.796;44.740;2023-01-29T01:12:58;10.57;;;4.03;;
75700;SDS011;64321;48.796;44.740;2023-01-29T01:18:00;21.45;;;6.38;;
75700;SDS011;64321;48.796;44.740;2023-01-29T01:23:03;14.75;;;7.70;;
75700;SDS011;64321;48.796;44.740;2023-01-29T01:28:10;19.52;;;8.02;;
75700;SDS011;64321;48.796;44.740;2023-01-29T01:33:12;17.25;;;5.97;;
75700;SDS011;64321;48.796;44.740;2023-01-29T01:38:15;10.85;;;4.60;;
75700;SDS011;64321;48.796;44.740;2023-01-29T01:43:17;13.23;;;4.15;;
75700;SDS011;64321;48.796;44.740;2023-01-29T01:48:23;9.30;;;2.92;;
75700;SDS011;64321;48.796;44.740;2023-01-29T01:58:39;8.10;;;2.75;;
75700;SDS011;64321;48.796;44.740;2023-01-29T02:03:49;7.75;;;3.50;;
75700;SDS011;64321;48.796;44.740;2023-01-29T02:09:15;14.38;;;4.57;;
75700;SDS011;64321;48.796;44.740;2023-01-29T02:14:38;15.10;;;6.10;;
75700;SDS011;64321;48.796;44.740;2023-01-29T02:30:37;11.35;;;5.95;;
75700;SDS011;64321;48.796;44.740;2023-01-29T02:35:45;13.68;;;6.10;;
75700;SDS011;64321;48.796;44.740;2023-01-29T02:41:28;14.77;;;5.35;;
75700;SDS011;64321;48.796;44.740;2023-01-29T02:46:38;11.85;;;5.47;;
75700;SDS011;64321;48.796;44.740;2023-01-29T02:51:43;17.50;;;5.95;;
75700;SDS011;64321;48.796;44.740;2023-01-29T03:01:50;13.55;;;4.18;;
75700;SDS011;64321;48.796;44.740;2023-01-29T03:06:56;11.73;;;4.28;;
75700;SDS011;64321;48.796;44.740;2023-01-29T03:12:04;14.43;;;6.10;;
75700;SDS011;64321;48.796;44.740;2023-01-29T03:17:21;15.85;;;7.07;;
75700;SDS011;64321;48.796;44.740;2023-01-29T03:22:25;13.52;;;4.85;;
75700;SDS011;64321;48.796;44.740;2023-01-29T03:27:42;12.15;;;3.58;;
75700;SDS011;64321;48.796;44.740;2023-01-29T03:33:10;10.95;;;4.70;;
75700;SDS011;64321;48.796;44.740;2023-01-29T03:38:13;14.32;;;4.13;;
75700;SDS011;64321;48.796;44.740;2023-01-29T03:43:36;9.43;;;3.08;;
75700;SDS011;64321;48.796;44.740;2023-01-29T03:53:52;10.63;;;3.20;;
75700;SDS011;64321;48.796;44.740;2023-01-29T04:04:18;10.18;;;2.92;;
75700;SDS011;64321;48.796;44.740;2023-01-29T04:09:27;10.57;;;3.25;;
75700;SDS011;64321;48.796;44.740;2023-01-29T04:14:31;9.93;;;2.95;;
75700;SDS011;64321;48.796;44.740;2023-01-29T04:19:35;8.00;;;2.88;;
75700;SDS011;64321;48.796;44.740;2023-01-29T04:24:37;9.10;;;3.15;;
75700;SDS011;64321;48.796;44.740;2023-01-29T04:29:48;9.13;;;2.72;;
75700;SDS011;64321;48.796;44.740;2023-01-29T04:40:22;9.30;;;2.95;;
75700;SDS011;64321;48.796;44.740;2023-01-29T04:50:25;9.10;;;3.22;;
75700;SDS011;64321;48.796;44.740;2023-01-29T04:55:35;11.07;;;3.42;;
75700;SDS011;64321;48.796;44.740;2023-01-29T05:00:40;13.07;;;6.40;;
75700;SDS011;64321;48.796;44.740;2023-01-29T05:05:44;14.55;;;7.10;;
75700;SDS011;64321;48.796;44.740;2023-01-29T05:10:47;11.90;;;5.55;;
75700;SDS011;64321;48.796;44.740;2023-01-29T05:15:55;13.10;;;6.13;;
75700;SDS011;64321;48.796;44.740;2023-01-29T05:21:00;17.17;;;8.15;;
75700;SDS011;64321;48.796;44.740;2023-01-29T05:26:03;20.30;;;7.50;;
75700;SDS011;64321;48.796;44.740;2023-01-29T05:31:07;17.70;;;8.27;;
75700;SDS011;64321;48.796;44.740;2023-01-29T05:36:10;11.13;;;4.10;;
75700;SDS011;64321;48.796;44.740;2023-01-29T05:41:12;15.38;;;6.18;;
75700;SDS011;64321;48.796;44.740;2023-01-29T05:46:14;8.57;;;3.28;;
75700;SDS011;64321;48.796;44.740;2023-01-29T05:51:16;14.80;;;4.88;;
75700;SDS011;64321;48.796;44.740;2023-01-29T05:56:18;12.75;;;4.35;;
75700;SDS011;64321;48.796;44.740;2023-01-29T06:01:22;12.82;;;4.70;;
75700;SDS011;64321;48.796;44.740;2023-01-29T06:06:24;16.48;;;5.40;;
75700;SDS011;64321;48.796;44.740;2023-01-29T06:11:26;16.83;;;7.32;;
75700;SDS011;64321;48.796;44.740;2023-01-29T06:16:28;16.15;;;7.22;;
75700;SDS011;64321;48.796;44.740;2023-01-29T06:21:31;17.67;;;7.03;;
75700;SDS011;64321;48.796;44.740;2023-01-29T06:26:33;18.35;;;8.05;;
75700;SDS011;64321;48.796;44.740;2023-01-29T06:31:35;20.88;;;8.15;;
75700;SDS011;64321;48.796;44.740;2023-01-29T06:50:52;12.93;;;5.18;;
75700;SDS011;64321;48.796;44.740;2023-01-29T06:55:55;17.00;;;5.75;;
75700;SDS011;64321;48.796;44.740;2023-01-29T07:01:07;11.30;;;3.22;;
75700;SDS011;64321;48.796;44.740;2023-01-29T07:06:10;14.15;;;3.00;;
75700;SDS011;64321;48.796;44.740;2023-01-29T07:11:12;8.70;;;4.47;;
75700;SDS011;64321;48.796;44.740;2023-01-29T07:16:14;12.85;;;4.82;;
75700;SDS011;64321;48.796;44.740;2023-01-29T07:21:17;14.73;;;4.50;;
75700;SDS011;64321;48.796;44.740;2023-01-29T07:26:19;25.77;;;6.88;;
75700;SDS011;64321;48.796;44.740;2023-01-29T07:31:21;17.05;;;4.38;;
75700;SDS011;64321;48.796;44.740;2023-01-29T07:36:24;22.98;;;4.95;;
75700;SDS011;64321;48.796;44.740;2023-01-29T07:41:26;29.20;;;6.95;;
75700;SDS011;64321;48.796;44.740;2023-01-29T07:46:28;12.13;;;6.25;;
75700;SDS011;64321;48.796;44.740;2023-01-29T07:51:30;16.48;;;5.30;;
75700;SDS011;64321;48.796;44.740;2023-01-29T07:56:32;13.20;;;4.38;;
75700;SDS011;64321;48.796;44.740;2023-01-29T08:01:35;16.85;;;5.30;;
75700;SDS011;64321;48.796;44.740;2023-01-29T08:06:37;9.18;;;3.05;;
75700;SDS011;64321;48.796;44.740;2023-01-29T08:11:39;10.45;;;4.95;;
75700;SDS011;64321;48.796;44.740;2023-01-29T08:16:41;15.02;;;5.10;;
75700;SDS011;64321;48.796;44.740;2023-01-29T08:21:44;10.23;;;5.18;;
75700;SDS011;64321;48.796;44.740;2023-01-29T08:26:46;7.22;;;4.07;;
75700;SDS011;64321;48.796;44.740;2023-01-29T08:31:48;10.65;;;4.80;;
75700;SDS011;64321;48.796;44.740;2023-01-29T08:36:50;13.98;;;5.82;;
75700;SDS011;64321;48.796;44.740;2023-01-29T08:41:54;13.73;;;5.90;;
75700;SDS011;64321;48.796;44.740;2023-01-29T08:46:57;10.52;;;5.38;;
75700;SDS011;64321;48.796;44.740;2023-01-29T08:52:00;16.15;;;5.22;;
75700;SDS011;64321;48.796;44.740;2023-01-29T08:57:04;15.55;;;5.07;;
75700;SDS011;64321;48.796;44.740;2023-01-29T09:02:07;17.05;;;5.43;;
75700;SDS011;64321;48.796;44.740;2023-01-29T09:07:13;19.20;;;5.40;;
75700;SDS011;64321;48.796;44.740;2023-01-29T09:12:15;11.90;;;5.20;;
75700;SDS011;64321;48.796;44.740;2023-01-29T09:17:17;17.55;;;6.07;;
75700;SDS011;64321;48.796;44.740;2023-01-29T09:22:20;15.77;;;7.15;;
75700;SDS011;64321;48.796;44.740;2023-01-29T09:27:22;15.90;;;6.72;;
75700;SDS011;64321;48.796;44.740;2023-01-29T09:32:24;17.90;;;7.18;;
75700;SDS011;64321;48.796;44.740;2023-01-29T09:37:47;24.40;;;8.98;;
75700;SDS011;64321;48.796;44.740;2023-01-29T09:42:51;26.80;;;9.20;;
75700;SDS011;64321;48.796;44.740;2023-01-29T09:47:57;20.95;;;8.70;;
75700;SDS011;64321;48.796;44.740;2023-01-29T09:53:01;23.42;;;7.50;;
75700;SDS011;64321;48.796;44.740;2023-01-29T09:58:11;12.13;;;6.13;;
75700;SDS011;64321;48.796;44.740;2023-01-29T10:13:47;11.90;;;6.88;;
75700;SDS011;64321;48.796;44.740;2023-01-29T10:18:54;15.13;;;7.22;;
75700;SDS011;64321;48.796;44.740;2023-01-29T10:24:09;16.63;;;7.05;;
75700;SDS011;64321;48.796;44.740;2023-01-29T10:29:15;17.35;;;6.93;;
75700;SDS011;64321;48.796;44.740;2023-01-29T10:39:24;13.75;;;7.57;;
75700;SDS011;64321;48.796;44.740;2023-01-29T11:04:52;15.88;;;7.13;;
75700;SDS011;64321;48.796;44.740;2023-01-29T11:20:24;14.13;;;7.57;;
75700;SDS011;64321;48.796;44.740;2023-01-29T11:25:27;13.18;;;6.65;;
75700;SDS011;64321;48.796;44.740;2023-01-29T11:30:31;13.50;;;6.30;;
75700;SDS011;64321;48.796;44.740;2023-01-29T11:35:38;15.45;;;7.65;;
75700;SDS011;64321;48.796;44.740;2023-01-29T11:40:40;15.05;;;7.20;;
75700;SDS011;64321;48.796;44.740;2023-01-29T11:45:43;11.40;;;7.10;;
75700;SDS011;64321;48.796;44.740;2023-01-29T11:50:52;13.77;;;6.70;;
75700;SDS011;64321;48.796;44.740;2023-01-29T11:55:56;14.05;;;6.75;;
75700;SDS011;64321;48.796;44.740;2023-01-29T12:06:06;13.57;;;5.75;;
75700;SDS011;64321;48.796;44.740;2023-01-29T12:11:11;13.52;;;5.95;;
75700;SDS011;64321;48.796;44.740;2023-01-29T12:16:25;14.05;;;6.38;;
75700;SDS011;64321;48.796;44.740;2023-01-29T12:21:34;15.23;;;5.95;;
75700;SDS011;64321;48.796;44.740;2023-01-29T12:26:48;15.98;;;6.30;;
75700;SDS011;64321;48.796;44.740;2023-01-29T12:42:30;15.55;;;6.80;;
75700;SDS011;64321;48.796;44.740;2023-01-29T12:52:38;18.10;;;7.07;;
75700;SDS011;64321;48.796;44.740;2023-01-29T12:57:58;26.50;;;7.40;;
75700;SDS011;64321;48.796;44.740;2023-01-29T13:03:08;13.73;;;6.82;;
75700;SDS011;64321;48.796;44.740;2023-01-29T13:13:29;20.15;;;8.43;;
75700;SDS011;64321;48.796;44.740;2023-01-29T13:23:38;15.18;;;7.28;;
75700;SDS011;64321;48.796;44.740;2023-01-29T13:28:43;18.10;;;7.43;;
75700;SDS011;64321;48.796;44.740;2023-01-29T13:39:06;14.57;;;6.38;;
75700;SDS011;64321;48.796;44.740;2023-01-29T13:44:52;17.85;;;7.93;;
75700;SDS011;64321;48.796;44.740;2023-01-29T13:49:39;19.15;;;7.60;;
75700;SDS011;64321;48.796;44.740;2023-01-29T13:54:48;14.88;;;6.82;;
75700;SDS011;64321;48.796;44.740;2023-01-29T13:59:52;18.42;;;7.70;;
75700;SDS011;64321;48.796;44.740;2023-01-29T14:10:17;22.40;;;6.35;;
75700;SDS011;64321;48.796;44.740;2023-01-29T14:15:20;19.10;;;7.97;;
75700;SDS011;64321;48.796;44.740;2023-01-29T14:20:26;13.48;;;6.38;;
75700;SDS011;64321;48.796;44.740;2023-01-29T14:25:45;17.90;;;6.60;;
75700;SDS011;64321;48.796;44.740;2023-01-29T14:30:48;16.02;;;6.40;;
75700;SDS011;64321;48.796;44.740;2023-01-29T14:35:51;20.60;;;7.55;;
75700;SDS011;64321;48.796;44.740;2023-01-29T14:51:37;12.55;;;5.97;;
75700;SDS011;64321;48.796;44.740;2023-01-29T14:56:45;15.57;;;7.32;;
75700;SDS011;64321;48.796;44.740;2023-01-29T15:01:54;16.17;;;7.50;;
75700;SDS011;64321;48.796;44.740;2023-01-29T15:22:24;11.57;;;5.88;;
75700;SDS011;64321;48.796;44.740;2023-01-29T15:27:27;14.02;;;6.53;;
75700;SDS011;64321;48.796;44.740;2023-01-29T15:32:38;11.98;;;5.40;;
75700;SDS011;64321;48.796;44.740;2023-01-29T15:37:41;12.82;;;6.25;;
75700;SDS011;64321;48.796;44.740;2023-01-29T15:42:44;18.48;;;6.50;;
75700;SDS011;64321;48.796;44.740;2023-01-29T15:47:49;19.35;;;8.50;;
75700;SDS011;64321;48.796;44.740;2023-01-29T15:52:52;22.15;;;8.80;;
75700;SDS011;64321;48.796;44.740;2023-01-29T15:57:55;21.08;;;8.52;;
75700;SDS011;64321;48.796;44.740;2023-01-29T16:02:58;21.13;;;9.10;;
75700;SDS011;64321;48.796;44.740;2023-01-29T16:08:03;18.75;;;8.98;;
75700;SDS011;64321;48.796;44.740;2023-01-29T16:13:10;24.13;;;10.02;;
75700;SDS011;64321;48.796;44.740;2023-01-29T16:18:21;23.98;;;10.68;;
75700;SDS011;64321;48.796;44.740;2023-01-29T16:23:25;23.45;;;9.10;;
75700;SDS011;64321;48.796;44.740;2023-01-29T16:28:28;18.33;;;9.40;;
75700;SDS011;64321;48.796;44.740;2023-01-29T16:33:34;23.63;;;10.38;;
75700;SDS011;64321;48.796;44.740;2023-01-29T16:38:37;20.13;;;9.20;;
75700;SDS011;64321;48.796;44.740;2023-01-29T16:43:47;24.05;;;11.35;;
75700;SDS011;64321;48.796;44.740;2023-01-29T16:48:50;26.50;;;10.95;;
75700;SDS011;64321;48.796;44.740;2023-01-29T16:53:56;23.40;;;10.45;;
75700;SDS011;64321;48.796;44.740;2023-01-29T16:59:00;23.05;;;9.98;;
75700;SDS011;64321;48.796;44.740;2023-01-29T17:04:05;23.83;;;10.40;;
75700;SDS011;64321;48.796;44.740;2023-01-29T17:09:17;28.67;;;11.38;;
75700;SDS011;64321;48.796;44.740;2023-01-29T17:14:21;32.75;;;12.35;;
75700;SDS011;64321;48.796;44.740;2023-01-29T17:19:24;23.45;;;11.15;;
75700;SDS011;64321;48.796;44.740;2023-01-29T17:24:27;22.55;;;9.20;;
75700;SDS011;64321;48.796;44.740;2023-01-29T17:29:29;25.77;;;9.93;;
75700;SDS011;64321;48.796;44.740;2023-01-29T17:34:32;20.98;;;8.95;;
75700;SDS011;64321;48.796;44.740;2023-01-29T17:39:35;24.90;;;9.40;;
75700;SDS011;64321;48.796;44.740;2023-01-29T17:44:37;21.17;;;9.73;;
75700;SDS011;64321;48.796;44.740;2023-01-29T17:49:40;19.13;;;8.02;;
75700;SDS011;64321;48.796;44.740;2023-01-29T17:54:42;17.13;;;8.30;;
75700;SDS011;64321;48.796;44.740;2023-01-29T17:59:45;22.77;;;8.02;;
75700;SDS011;64321;48.796;44.740;2023-01-29T18:04:47;21.42;;;7.80;;
75700;SDS011;64321;48.796;44.740;2023-01-29T18:09:51;23.27;;;10.82;;
75700;SDS011;64321;48.796;44.740;2023-01-29T18:14:53;24.33;;;10.30;;
75700;SDS011;64321;48.796;44.740;2023-01-29T18:19:56;22.33;;;9.52;;
75700;SDS011;64321;48.796;44.740;2023-01-29T18:24:59;20.60;;;8.05;;
75700;SDS011;64321;48.796;44.740;2023-01-29T18:30:03;23.60;;;9.45;;
75700;SDS011;64321;48.796;44.740;2023-01-29T18:35:06;25.83;;;7.97;;
75700;SDS011;64321;48.796;44.740;2023-01-29T18:40:09;23.60;;;10.27;;
75700;SDS011;64321;48.796;44.740;2023-01-29T18:45:14;18.90;;;8.60;;
75700;SDS011;64321;48.796;44.740;2023-01-29T18:50:17;20.30;;;7.50;;
75700;SDS011;64321;48.796;44.740;2023-01-29T18:55:22;20.90;;;8.10;;
75700;SDS011;64321;48.796;44.740;2023-01-29T19:00:24;19.90;;;7.50;;
75700;SDS011;64321;48.796;44.740;2023-01-29T19:05:26;22.77;;;8.73;;
75700;SDS011;64321;48.796;44.740;2023-01-29T19:10:28;23.33;;;8.27;;
75700;SDS011;64321;48.796;44.740;2023-01-29T19:15:31;21.77;;;8.05;;
75700;SDS011;64321;48.796;44.740;2023-01-29T19:20:33;23.17;;;8.35;;
75700;SDS011;64321;48.796;44.740;2023-01-29T19:25:36;23.33;;;8.20;;
75700;SDS011;64321;48.796;44.740;2023-01-29T19:30:39;19.17;;;8.00;;
75700;SDS011;64321;48.796;44.740;2023-01-29T19:35:44;20.55;;;8.82;;
75700;SDS011;64321;48.796;44.740;2023-01-29T19:40:47;21.38;;;6.95;;
75700;SDS011;64321;48.796;44.740;2023-01-29T19:45:55;24.70;;;8.98;;
75700;SDS011;64321;48.796;44.740;2023-01-29T19:50:59;21.73;;;9.20;;
75700;SDS011;64321;48.796;44.740;2023-01-29T19:56:04;30.38;;;11.40;;
75700;SDS011;64321;48.796;44.740;2023-01-29T20:01:11;24.02;;;7.63;;
75700;SDS011;64321;48.796;44.740;2023-01-29T20:06:15;20.75;;;8.70;;
75700;SDS011;64321;48.796;44.740;2023-01-29T20:11:19;18.27;;;7.32;;
75700;SDS011;64321;48.796;44.740;2023-01-29T20:16:21;22.02;;;7.93;;
75700;SDS011;64321;48.796;44.740;2023-01-29T20:21:24;24.15;;;8.73;;
75700;SDS011;64321;48.796;44.740;2023-01-29T20:26:26;15.35;;;7.55;;
75700;SDS011;64321;48.796;44.740;2023-01-29T20:31:28;20.70;;;7.65;;
75700;SDS011;64321;48.796;44.740;2023-01-29T20:36:31;24.55;;;9.05;;
75700;SDS011;64321;48.796;44.740;2023-01-29T20:41:33;17.40;;;6.53;;
75700;SDS011;64321;48.796;44.740;2023-01-29T20:46:35;16.45;;;8.13;;
75700;SDS011;64321;48.796;44.740;2023-01-29T20:51:38;18.13;;;7.28;;
75700;SDS011;64321;48.796;44.740;2023-01-29T20:56:41;17.00;;;5.95;;
75700;SDS011;64321;48.796;44.740;2023-01-29T21:01:45;13.00;;;5.43;;
75700;SDS011;64321;48.796;44.740;2023-01-29T21:06:47;17.13;;;6.05;;
75700;SDS011;64321;48.796;44.740;2023-01-29T21:11:49;13.27;;;5.70;;
75700;SDS011;64321;48.796;44.740;2023-01-29T21:16:52;16.20;;;6.57;;
75700;SDS011;64321;48.796;44.740;2023-01-29T21:21:54;15.60;;;5.97;;
75700;SDS011;64321;48.796;44.740;2023-01-29T21:26:58;15.40;;;6.28;;
75700;SDS011;64321;48.796;44.740;2023-01-29T21:32:00;16.15;;;5.97;;
75700;SDS011;64321;48.796;44.740;2023-01-29T21:37:03;17.05;;;6.05;;
75700;SDS011;64321;48.796;44.740;2023-01-29T21:42:05;16.92;;;5.95;;
75700;SDS011;64321;48.796;44.740;2023-01-29T21:47:26;15.40;;;5.82;;
75700;SDS011;64321;48.796;44.740;2023-01-29T21:52:28;11.05;;;4.88;;
75700;SDS011;64321;48.796;44.740;2023-01-29T21:57:30;14.95;;;6.30;;
75700;SDS011;64321;48.796;44.740;2023-01-29T22:02:32;17.55;;;5.90;;
75700;SDS011;64321;48.796;44.740;2023-01-29T22:07:35;16.17;;;5.85;;
75700;SDS011;64321;48.796;44.740;2023-01-29T22:12:52;20.13;;;6.50;;
75700;SDS011;64321;48.796;44.740;2023-01-29T22:17:54;15.98;;;7.72;;
75700;SDS011;64321;48.796;44.740;2023-01-29T22:22:57;17.48;;;6.78;;
75700;SDS011;64321;48.796;44.740;2023-01-29T22:28:01;20.42;;;7.57;;
75700;SDS011;64321;48.796;44.740;2023-01-29T22:33:03;17.58;;;7.88;;
75700;SDS011;64321;48.796;44.740;2023-01-29T22:38:06;17.40;;;6.40;;
75700;SDS011;64321;48.796;44.740;2023-01-29T22:43:09;17.25;;;6.20;;
75700;SDS011;64321;48.796;44.740;2023-01-29T22:48:12;17.98;;;6.22;;
75700;SDS011;64321;48.796;44.740;2023-01-29T22:53:14;17.38;;;6.93;;
75700;SDS011;64321;48.796;44.740;2023-01-29T22:58:16;19.52;;;7.07;;
75700;SDS011;64321;48.796;44.740;2023-01-29T23:03:18;18.52;;;6.30;;
75700;SDS011;64321;48.796;44.740;2023-01-29T23:08:21;18.77;;;7.10;;
75700;SDS011;64321;48.796;44.740;2023-01-29T23:13:23;15.95;;;6.75;;
75700;SDS011;64321;48.796;44.740;2023-01-29T23:18:25;18.23;;;7.75;;
75700;SDS011;64321;48.796;44.740;2023-01-29T23:23:28;20.88;;;7.15;;
75700;SDS011;64321;48.796;44.740;2023-01-29T23:28:30;23.13;;;6.93;;
75700;SDS011;64321;48.796;44.740;2023-01-29T23:33:32;17.63;;;6.63;;
75700;SDS011;64321;48.796;44.740;2023-01-29T23:38:34;20.70;;;8.55;;
75700;SDS011;64321;48.796;44.740;2023-01-29T23:43:36;13.15;;;5.65;;
75700;SDS011;64321;48.796;44.740;2023-01-29T23:48:39;22.35;;;7.47;;
75700;SDS011;64321;48.796;44.740;2023-01-29T23:53:41;21.40;;;7.70;;
75700;SDS011;64321;48.796;44.740;2023-01-29T23:58:44;20.83;;;8.02;;
